Allegro — V2CQ5 — position and weather

sailwx.info

Track history (hours):
 
Tides and Currents Weather Stations Pressure Air Temp Water Temp Dewpoint Dewpoint Depression Visibility Wind Speed Wind Dir Waves Ship Positions

Allegro

Last reported at 2018-Feb-06 10:16 UTC. Time now 2018-Feb-23 08:55 UTC.
Position N 36°60' E 002°55'.
Warning: this ship's position is 16 days out of date.

Length 134 m; draft 8.7 m.

Type: Ship (hazmat cat B). MMSI: 304642000.

Date/timePositionNaut miles runAvg speedWind from/ knotsBaromVisibWave heightAir tempDewpointWater temp
2018-Feb-06 10:16N 36°60' E 002°55'810.5
2018-Feb-06 09:30N 36°59' E 002°45'2211.3
2018-Feb-06 07:30N 36°55' E 002°17'36411.5
2018-Feb-04 23:51N 36°01' W 005°10'412.4
2018-Feb-04 23:30N 36°00' W 005°15'712.5
2018-Feb-04 22:57N 36°03' W 005°23'610.7
2018-Feb-04 22:26N 36°08' W 005°25'0 0.0
2018-Feb-04 17:33N 36°08' W 005°25'0 0.0
2018-Feb-04 17:24N 36°08' W 005°25'1 0.1
2018-Feb-04 01:09N 36°09' W 005°25'0 0.0
2018-Feb-04 00:45N 36°09' W 005°25'0 0.0
2018-Feb-04 00:15N 36°09' W 005°25'0 0.0
2018-Feb-03 21:07N 36°09' W 005°25'2 0.7
2018-Feb-03 18:30N 36°08' W 005°24'4 7.5
2018-Feb-03 18:00N 36°04' W 005°22'1 2.1
2018-Feb-03 17:26N 36°05' W 005°21'3 5.9
2018-Feb-03 17:00N 36°04' W 005°17'  
2018-Jan-31 20:58N 36°10' W 005°13'2 4.1
2018-Jan-31 20:31N 36°10' W 005°15'2 4.4
2018-Jan-31 20:00N 36°08' W 005°16'2 4.7
2018-Jan-31 19:30N 36°05' W 005°16'2 4.8
2018-Jan-31 19:00N 36°04' W 005°19'4 7.7
2018-Jan-31 18:30N 36°02' W 005°23'612.5
2018-Jan-31 18:00N 35°57' W 005°28'  
Track history (hours):
 
Tides and Currents Weather Stations Pressure Air Temp Water Temp Dewpoint Dewpoint Depression Visibility Wind Speed Wind Dir Waves Ship Positions

Allegro

Last reported at 2018-Feb-06 10:16 UTC. Time now 2018-Feb-23 08:55 UTC.
Position N 36°60' E 002°55'.
Warning: this ship's position is 16 days out of date.

Length 134 m; draft 8.7 m.

Type: Ship (hazmat cat B). MMSI: 304642000.

Date/timePositionNaut miles runAvg speedWind from/ knotsBaromVisibWave heightAir tempDewpointWater temp
2018-Feb-06 10:16N 36°60' E 002°55'810.5
2018-Feb-06 09:30N 36°59' E 002°45'2211.3
2018-Feb-06 07:30N 36°55' E 002°17'36411.5
2018-Feb-04 23:51N 36°01' W 005°10'412.4
2018-Feb-04 23:30N 36°00' W 005°15'712.5
2018-Feb-04 22:57N 36°03' W 005°23'610.7
2018-Feb-04 22:26N 36°08' W 005°25'0 0.0
2018-Feb-04 17:33N 36°08' W 005°25'0 0.0
2018-Feb-04 17:24N 36°08' W 005°25'1 0.1
2018-Feb-04 01:09N 36°09' W 005°25'0 0.0
2018-Feb-04 00:45N 36°09' W 005°25'0 0.0
2018-Feb-04 00:15N 36°09' W 005°25'0 0.0
2018-Feb-03 21:07N 36°09' W 005°25'2 0.7
2018-Feb-03 18:30N 36°08' W 005°24'4 7.5
2018-Feb-03 18:00N 36°04' W 005°22'1 2.1
2018-Feb-03 17:26N 36°05' W 005°21'3 5.9
2018-Feb-03 17:00N 36°04' W 005°17'  
2018-Jan-31 20:58N 36°10' W 005°13'2 4.1
2018-Jan-31 20:31N 36°10' W 005°15'2 4.4
2018-Jan-31 20:00N 36°08' W 005°16'2 4.7
2018-Jan-31 19:30N 36°05' W 005°16'2 4.8
2018-Jan-31 19:00N 36°04' W 005°19'4 7.7
2018-Jan-31 18:30N 36°02' W 005°23'612.5
2018-Jan-31 18:00N 35°57' W 005°28'  

Dump ship's entire track history